createdAt,value
2023-04-29T00:04:24.189Z,89.05
2023-04-29T00:09:27.633Z,89.29
2023-04-29T00:14:30.021Z,89.40
2023-04-29T00:19:31.983Z,89.46
2023-04-29T00:24:35.531Z,90.08
2023-04-29T00:29:37.641Z,92.31
2023-04-29T00:34:39.549Z,94.18
2023-04-29T00:39:43.149Z,95.51
2023-04-29T00:44:45.208Z,97.32
2023-04-29T00:49:47.572Z,99.12
2023-04-29T00:54:52.213Z,99.87
2023-04-29T00:59:54.422Z,100.00
2023-04-29T01:04:56.522Z,100.00
2023-04-29T01:10:04.362Z,100.00
2023-04-29T01:15:12.529Z,100.00
2023-04-29T01:20:15.120Z,100.00
2023-04-29T01:25:19.094Z,100.00
2023-04-29T01:30:31.732Z,100.00
2023-04-29T01:35:52.312Z,100.00
2023-04-29T01:41:10.403Z,100.00
2023-04-29T01:46:16.416Z,100.00
2023-04-29T01:51:18.740Z,100.00
2023-04-29T01:56:22.240Z,100.00
2023-04-29T02:01:24.666Z,100.00
2023-04-29T02:06:27.007Z,100.00
2023-04-29T02:11:30.501Z,100.00
2023-04-29T02:16:32.895Z,100.00
2023-04-29T02:21:34.685Z,100.00
2023-04-29T02:26:38.175Z,100.00
2023-04-29T02:31:40.058Z,100.00
2023-04-29T02:36:42.226Z,100.00
2023-04-29T02:41:45.670Z,100.00
2023-04-29T02:46:47.768Z,100.00
2023-04-29T02:51:50.038Z,100.00
2023-04-29T02:56:53.801Z,100.00
2023-04-29T03:01:55.986Z,100.00
2023-04-29T03:06:58.423Z,100.00
2023-04-29T03:12:01.955Z,100.00
2023-04-29T03:17:04.471Z,100.00
2023-04-29T03:22:06.775Z,100.00
2023-04-29T03:27:10.381Z,100.00
2023-04-29T03:32:12.521Z,100.00
2023-04-29T03:37:14.682Z,100.00
2023-04-29T03:42:18.208Z,100.00
2023-04-29T03:47:20.281Z,100.00
2023-04-29T03:52:22.351Z,100.00
2023-04-29T03:57:25.789Z,100.00
2023-04-29T04:02:27.689Z,100.00
2023-04-29T04:07:29.966Z,100.00
2023-04-29T04:12:33.071Z,100.00
2023-04-29T04:17:35.664Z,100.00
2023-04-29T04:22:37.759Z,100.00
2023-04-29T04:27:41.273Z,100.00
2023-04-29T04:32:43.047Z,100.00
2023-04-29T04:37:45.228Z,100.00
2023-04-29T04:42:48.642Z,100.00
2023-04-29T04:47:50.774Z,100.00
2023-04-29T04:52:54.676Z,100.00
2023-04-29T04:57:57.748Z,100.00
2023-04-29T05:02:59.896Z,100.00
2023-04-29T05:08:02.105Z,100.00
2023-04-29T05:13:05.630Z,100.00
2023-04-29T05:18:08.122Z,100.00
2023-04-29T05:23:10.363Z,100.00
2023-04-29T05:28:13.713Z,100.00
2023-04-29T05:33:15.806Z,100.00
2023-04-29T05:38:17.954Z,100.00
2023-04-29T05:43:21.513Z,100.00
2023-04-29T05:48:23.716Z,100.00
2023-04-29T05:53:25.910Z,100.00
2023-04-29T05:58:29.346Z,100.00
2023-04-29T06:03:31.603Z,100.00
2023-04-29T06:08:33.649Z,100.00
2023-04-29T06:13:37.083Z,100.00
2023-04-29T06:18:39.572Z,100.00
2023-04-29T06:23:41.409Z,100.00
2023-04-29T06:28:44.700Z,100.00
2023-04-29T06:33:46.832Z,100.00
2023-04-29T06:38:48.799Z,100.00
2023-04-29T06:43:52.550Z,100.00
2023-04-29T06:48:54.684Z,100.00
2023-04-29T06:53:56.950Z,100.00
2023-04-29T06:59:00.473Z,100.00
2023-04-29T07:04:02.651Z,100.00
2023-04-29T07:09:04.555Z,100.00
2023-04-29T07:14:07.715Z,100.00
2023-04-29T07:19:09.876Z,100.00
2023-04-29T07:24:12.077Z,100.00
2023-04-29T07:29:15.556Z,100.00
2023-04-29T07:34:17.357Z,100.00
2023-04-29T07:39:19.462Z,100.00
2023-04-29T07:44:22.586Z,100.00
2023-04-29T07:49:24.443Z,100.00
2023-04-29T07:54:26.429Z,100.00
2023-04-29T07:59:29.967Z,100.00
2023-04-29T08:04:32.027Z,100.00
2023-04-29T08:09:34.397Z,100.00
2023-04-29T08:14:38.248Z,100.00
2023-04-29T08:19:40.594Z,100.00
2023-04-29T08:24:43.146Z,100.00
2023-04-29T08:29:46.641Z,100.00
2023-04-29T08:34:48.805Z,100.00
2023-04-29T08:39:50.509Z,100.00
2023-04-29T08:44:54.457Z,100.00
2023-04-29T08:49:56.862Z,100.00
2023-04-29T08:54:59.907Z,100.00
2023-04-29T09:00:03.983Z,100.00
2023-04-29T09:05:09.970Z,100.00
2023-04-29T09:10:12.561Z,100.00
2023-04-29T09:15:16.063Z,100.00
2023-04-29T09:20:28.182Z,100.00
2023-04-29T09:25:30.396Z,100.00
2023-04-29T09:30:45.754Z,100.00
2023-04-29T09:35:47.535Z,100.00
2023-04-29T09:40:59.116Z,100.00
2023-04-29T09:46:03.607Z,100.00
2023-04-29T09:51:05.506Z,100.00
2023-04-29T09:56:07.661Z,100.00
2023-04-29T10:01:11.495Z,100.00
2023-04-29T10:06:14.124Z,100.00
2023-04-29T10:11:17.529Z,100.00
2023-04-29T10:16:29.226Z,100.00
2023-04-29T10:21:31.707Z,100.00
2023-04-29T10:26:34.880Z,100.00
2023-04-29T10:31:39.810Z,100.00
2023-04-29T10:36:41.672Z,100.00
2023-04-29T10:41:45.502Z,100.00
2023-04-29T10:46:49.104Z,100.00
2023-04-29T10:51:50.860Z,99.71
2023-04-29T10:56:53.602Z,99.86
2023-04-29T11:01:56.665Z,98.11
2023-04-29T11:06:58.686Z,96.44
2023-04-29T11:12:01.688Z,94.90
2023-04-29T11:17:08.958Z,95.85
2023-04-29T11:22:26.077Z,95.84
2023-04-29T11:27:31.586Z,92.02
2023-04-29T11:32:36.880Z,88.80
2023-04-29T11:37:39.246Z,87.22
2023-04-29T11:42:43.915Z,86.51
2023-04-29T11:47:48.983Z,82.79
2023-04-29T11:52:51.339Z,83.22
2023-04-29T11:57:53.806Z,84.41
2023-04-29T12:02:58.794Z,85.08
2023-04-29T12:08:01.000Z,87.80
2023-04-29T12:13:03.567Z,89.09
2023-04-29T12:18:08.465Z,88.02
2023-04-29T12:23:14.742Z,88.23
2023-04-29T12:28:17.137Z,87.72
2023-04-29T12:33:21.477Z,85.82
2023-04-29T12:38:24.296Z,80.58
2023-04-29T12:43:27.301Z,79.86
2023-04-29T12:48:33.212Z,75.90
2023-04-29T12:53:35.964Z,76.07
2023-04-29T12:58:38.924Z,75.80
2023-04-29T13:03:42.537Z,75.70
2023-04-29T13:08:44.457Z,76.36
2023-04-29T13:13:46.204Z,74.23
2023-04-29T13:19:01.801Z,73.77
2023-04-29T13:24:11.141Z,72.60
2023-04-29T13:29:12.832Z,74.12
2023-04-29T13:34:16.057Z,73.27
2023-04-29T13:39:18.030Z,73.84
2023-04-29T13:44:29.235Z,72.12
2023-04-29T13:54:57.046Z,67.10
2023-04-29T14:00:30.592Z,66.91
2023-04-29T14:05:32.236Z,66.44
2023-04-29T14:10:34.693Z,66.71
2023-04-29T14:15:36.827Z,66.42
2023-04-29T14:20:40.740Z,67.21
2023-04-29T14:25:43.084Z,69.26
2023-04-29T14:30:46.993Z,69.38
2023-04-29T14:35:50.997Z,66.49
2023-04-29T14:40:53.182Z,62.50
2023-04-29T14:45:55.451Z,61.39
2023-04-29T14:50:58.602Z,61.02
2023-04-29T14:56:00.447Z,62.78
2023-04-29T15:01:02.601Z,62.39
2023-04-29T15:06:05.859Z,62.31
2023-04-29T15:11:07.613Z,63.51
2023-04-29T15:16:09.749Z,64.13
2023-04-29T15:21:12.954Z,64.27
2023-04-29T15:26:14.980Z,63.76
2023-04-29T15:31:16.747Z,63.38
2023-04-29T15:36:19.833Z,62.89
2023-04-29T15:41:21.596Z,62.08
2023-04-29T15:46:23.580Z,63.55
2023-04-29T15:51:26.859Z,64.45
2023-04-29T15:56:29.974Z,64.99
2023-04-29T16:01:33.669Z,65.85
2023-04-29T16:06:38.329Z,65.94
2023-04-29T16:11:40.310Z,65.75
2023-04-29T16:16:42.140Z,65.66
2023-04-29T16:21:45.791Z,65.02
2023-04-29T16:26:47.969Z,65.61
2023-04-29T16:31:50.851Z,66.30
2023-04-29T16:36:55.192Z,65.42
2023-04-29T16:41:56.939Z,66.53
2023-04-29T16:46:59.798Z,64.64
2023-04-29T16:52:04.038Z,61.46
2023-04-29T16:57:06.239Z,58.75
2023-04-29T17:02:08.572Z,56.46
2023-04-29T17:07:12.301Z,54.56
2023-04-29T17:12:14.305Z,53.92
2023-04-29T17:17:16.505Z,55.10
2023-04-29T17:22:20.026Z,56.73
2023-04-29T17:27:22.457Z,57.90
2023-04-29T17:32:24.486Z,58.41
2023-04-29T17:37:28.087Z,59.09
2023-04-29T17:42:30.155Z,59.19
2023-04-29T17:47:31.902Z,59.48
2023-04-29T17:52:35.168Z,60.01
2023-04-29T17:57:37.042Z,60.65
2023-04-29T18:02:38.876Z,60.66
2023-04-29T18:07:42.207Z,61.00
2023-04-29T18:12:43.981Z,61.66
2023-04-29T18:17:46.482Z,62.00
2023-04-29T18:22:49.823Z,62.74
2023-04-29T18:27:56.977Z,62.11
2023-04-29T18:33:02.191Z,62.29
2023-04-29T18:38:05.358Z,62.21
2023-04-29T18:43:07.550Z,62.91
2023-04-29T18:48:09.290Z,62.44
2023-04-29T18:53:12.489Z,62.35
2023-04-29T18:58:14.643Z,63.12
2023-04-29T19:03:16.612Z,63.12
2023-04-29T19:08:20.831Z,62.91
2023-04-29T19:13:24.072Z,64.01
2023-04-29T19:18:26.963Z,65.52
2023-04-29T19:23:30.337Z,66.63
2023-04-29T19:28:32.380Z,68.13
2023-04-29T19:33:34.940Z,69.29
2023-04-29T19:38:38.136Z,73.19
2023-04-29T19:43:40.391Z,73.88
2023-04-29T19:48:42.120Z,72.83
2023-04-29T19:53:45.655Z,74.60
2023-04-29T19:58:47.975Z,76.11
2023-04-29T20:03:50.468Z,76.50
2023-04-29T20:08:53.509Z,76.55
2023-04-29T20:13:55.283Z,76.43
2023-04-29T20:18:57.467Z,79.42
2023-04-29T20:24:01.079Z,79.94
2023-04-29T20:29:03.289Z,81.59
2023-04-29T20:34:05.053Z,83.48
2023-04-29T20:39:08.190Z,85.50
2023-04-29T20:44:09.971Z,86.64
2023-04-29T20:49:12.164Z,88.15
2023-04-29T20:54:15.571Z,88.75
2023-04-29T20:59:17.311Z,88.90
2023-04-29T21:04:19.510Z,88.91
2023-04-29T21:09:22.989Z,88.84
2023-04-29T21:14:24.787Z,89.47
2023-04-29T21:19:27.316Z,89.99
2023-04-29T21:24:30.401Z,91.42
2023-04-29T21:29:32.588Z,91.54
2023-04-29T21:34:34.957Z,89.11
2023-04-29T21:39:38.013Z,86.46
2023-04-29T21:44:40.185Z,85.12
2023-04-29T21:49:42.192Z,85.39
2023-04-29T21:54:45.670Z,85.29
2023-04-29T21:59:47.834Z,85.58
2023-04-29T22:04:50.693Z,85.42
2023-04-29T22:09:54.481Z,85.91
2023-04-29T22:14:56.783Z,86.19
2023-04-29T22:19:58.922Z,86.36
2023-04-29T22:25:02.298Z,86.96
2023-04-29T22:30:05.227Z,87.92
2023-04-29T22:35:08.082Z,86.90
2023-04-29T22:40:13.482Z,86.99
2023-04-29T22:45:15.749Z,87.82
2023-04-29T22:50:17.933Z,88.23
2023-04-29T22:55:21.583Z,88.99
2023-04-29T23:00:23.644Z,89.79
2023-04-29T23:05:25.748Z,89.73
2023-04-29T23:10:29.181Z,89.27
2023-04-29T23:15:31.355Z,88.45
2023-04-29T23:20:33.128Z,88.26
2023-04-29T23:25:36.218Z,88.34
2023-04-29T23:30:38.658Z,88.21
2023-04-29T23:35:40.700Z,88.99
2023-04-29T23:40:44.151Z,89.67
2023-04-29T23:45:46.349Z,91.88
2023-04-29T23:50:48.549Z,93.96
2023-04-29T23:55:52.052Z,93.36
